Terminal Aerodrome Forecast
Issued by NWS Charleston, WV

Current Version | Previous Version | Graphics & Text | Print | Product List | Glossary On
Versions: 1 2 3 4 5 6 7 8 9 10 11 12 13 14 15 16 17 18 19 20 21 22 23 24
730
FTUS41 KRLX 101739
TAFCRW
TAF
KCRW 101739Z 1018/1118 23011G18KT P6SM SCT030 BKN040
     FM102200 22007KT P6SM BKN250
     FM111100 24003KT P6SM SCT035=

USA.gov is the U.S. government's official web portal to all federal, state and local government web resources and services.